Terminal Aerodrome Forecast
Issued by NWS

Home | Current Version | Previous Version | Text Only | Print | Product List | Glossary On
Versions: 1 2 3 4 5 6 7 8 9 10 11 12 13
000
FTUS45 KMSO 241123
TAFSMN
TAF
KSMN 241123Z 2412/2512 VRB03KT P6SM -SHSN SCT025 OVC050
     FM241700 02003KT P6SM VCSH OVC050
     FM242000 01005KT P6SM BKN050
      AMD LTD TO CLD VIS AND WIND=

USA.gov is the U.S. government's official web portal to all federal, state and local government web resources and services.